Terminal Aerodrome Forecast
Issued by NWS Sterling, VA

Home | Current Version | Previous Version | Text Only | Print | Product List | Glossary On
Versions: 1 2 3 4 5 6 7 8 9 10 11 12 13 14 15 16 17 18 19 20 21 22
046
FTUS41 KLWX 261218 AAB
TAFCHO
TAF AMD
KCHO 261218Z 2612/2712 VRB03KT 2SM -DZ BR BKN008 OVC040
     FM261500 18006KT P6SM BKN008 OVC040
     FM261800 18010KT P6SM BKN015 OVC040
     FM270000 18008KT P6SM BKN025 OVC040
     FM270300 VRB04KT 5SM -SHRA BKN015 OVC040
     FM271100 VRB04KT P6SM VCSH BKN050 BKN130=

USA.gov is the U.S. government's official web portal to all federal, state and local government web resources and services.